createdAt,value
2018-06-21T00:00:25.644Z,4.50
2018-06-21T00:02:54.031Z,2.93
2018-06-21T00:05:22.451Z,3.60
2018-06-21T00:07:50.886Z,3.07
2018-06-21T00:10:19.258Z,2.70
2018-06-21T00:12:47.704Z,4.27
2018-06-21T00:15:16.165Z,3.77
2018-06-21T00:17:44.163Z,3.40
2018-06-21T00:20:12.752Z,2.30
2018-06-21T00:22:41.185Z,2.70
2018-06-21T00:25:09.589Z,3.27
2018-06-21T00:27:38.090Z,2.83
2018-06-21T00:30:06.504Z,4.33
2018-06-21T00:32:34.839Z,3.30
2018-06-21T00:35:03.361Z,2.60
2018-06-21T00:37:31.741Z,3.43
2018-06-21T00:40:00.189Z,2.30
2018-06-21T00:42:28.646Z,2.87
2018-06-21T00:44:57.041Z,2.77
2018-06-21T00:47:26.455Z,2.40
2018-06-21T00:49:55.032Z,2.27
2018-06-21T00:52:23.063Z,2.30
2018-06-21T00:54:51.500Z,2.80
2018-06-21T00:57:19.791Z,3.03
2018-06-21T00:59:48.216Z,3.13
2018-06-21T01:02:16.668Z,2.43
2018-06-21T01:04:44.965Z,2.77
2018-06-21T01:07:13.775Z,2.43
2018-06-21T01:09:42.212Z,2.83
2018-06-21T01:12:10.609Z,2.80
2018-06-21T01:14:39.084Z,3.60
2018-06-21T01:17:07.546Z,3.13
2018-06-21T01:19:35.907Z,2.53
2018-06-21T01:22:04.250Z,3.67
2018-06-21T01:24:32.625Z,3.53
2018-06-21T01:27:01.085Z,2.13
2018-06-21T01:29:29.369Z,2.57
2018-06-21T01:31:57.762Z,2.83
2018-06-21T01:34:26.276Z,6.00
2018-06-21T01:36:54.733Z,2.80
2018-06-21T01:39:23.151Z,2.97
2018-06-21T01:41:51.718Z,2.40
2018-06-21T01:44:20.188Z,2.53
2018-06-21T01:46:48.631Z,3.17
2018-06-21T01:49:17.099Z,2.80
2018-06-21T01:51:45.553Z,3.30
2018-06-21T01:54:14.041Z,2.60
2018-06-21T01:56:42.364Z,3.53
2018-06-21T01:59:10.783Z,3.03
2018-06-21T02:01:39.148Z,3.17
2018-06-21T02:04:07.625Z,2.90
2018-06-21T02:06:35.715Z,2.80
2018-06-21T02:09:06.338Z,2.80
2018-06-21T02:11:34.820Z,3.33
2018-06-21T02:14:04.521Z,3.00
2018-06-21T02:16:33.026Z,2.80
2018-06-21T02:19:01.340Z,2.90
2018-06-21T02:21:29.731Z,3.63
2018-06-21T02:23:58.081Z,3.93
2018-06-21T02:26:26.413Z,2.73
2018-06-21T02:28:54.798Z,2.60
2018-06-21T02:31:23.252Z,3.63
2018-06-21T02:33:51.677Z,3.83
2018-06-21T02:36:19.996Z,3.10
2018-06-21T02:38:48.456Z,2.87
2018-06-21T02:41:16.849Z,2.90
2018-06-21T02:43:45.191Z,3.53
2018-06-21T02:46:13.498Z,4.87
2018-06-21T02:48:41.967Z,3.00
2018-06-21T02:51:10.332Z,3.20
2018-06-21T02:53:38.769Z,3.13
2018-06-21T02:56:07.268Z,2.70
2018-06-21T02:58:35.809Z,3.30
2018-06-21T03:01:04.308Z,3.60
2018-06-21T03:03:32.623Z,3.07
2018-06-21T03:06:01.056Z,2.70
2018-06-21T03:08:29.493Z,3.67
2018-06-21T03:10:57.817Z,3.40
2018-06-21T03:13:26.110Z,3.33
2018-06-21T03:15:54.628Z,3.00
2018-06-21T03:18:23.178Z,5.70
2018-06-21T03:20:51.552Z,3.73
2018-06-21T03:24:07.251Z,3.07
2018-06-21T03:26:35.562Z,3.90
2018-06-21T03:32:35.763Z,2.57
2018-06-21T03:38:40.272Z,4.50
2018-06-21T03:41:08.654Z,4.23
2018-06-21T03:43:37.099Z,4.17
2018-06-21T03:46:05.464Z,3.17
2018-06-21T03:48:34.374Z,3.60
2018-06-21T03:51:02.787Z,3.03
2018-06-21T03:53:31.181Z,4.40
2018-06-21T03:55:59.637Z,2.63
2018-06-21T03:58:27.980Z,2.80
2018-06-21T04:00:56.384Z,3.57
2018-06-21T04:03:24.805Z,4.23
2018-06-21T04:05:53.212Z,12.03
2018-06-21T04:08:21.500Z,23.83
2018-06-21T04:10:49.853Z,40.33
2018-06-21T04:13:18.284Z,44.50
2018-06-21T04:15:46.650Z,43.57
2018-06-21T04:18:15.032Z,47.30
2018-06-21T04:20:43.423Z,50.63
2018-06-21T04:23:11.691Z,53.97
2018-06-21T04:25:40.184Z,47.17
2018-06-21T04:28:08.647Z,37.43
2018-06-21T04:30:37.348Z,33.93
2018-06-21T04:33:05.733Z,33.77
2018-06-21T04:35:34.785Z,34.60
2018-06-21T04:38:03.137Z,37.13
2018-06-21T04:40:31.336Z,47.40
2018-06-21T04:42:59.780Z,53.23
2018-06-21T04:45:28.257Z,58.10
2018-06-21T04:47:56.686Z,72.33
2018-06-21T04:50:25.027Z,78.33
2018-06-21T04:52:53.444Z,77.97
2018-06-21T04:55:21.783Z,67.90
2018-06-21T04:57:50.172Z,58.30
2018-06-21T05:00:18.727Z,50.90
2018-06-21T05:02:47.046Z,43.43
2018-06-21T05:05:15.543Z,40.70
2018-06-21T05:07:43.974Z,37.63
2018-06-21T05:10:12.477Z,29.57
2018-06-21T05:12:40.804Z,27.90
2018-06-21T05:15:09.221Z,19.97
2018-06-21T05:17:37.641Z,14.70
2018-06-21T05:20:06.116Z,15.07
2018-06-21T05:22:34.535Z,10.77
2018-06-21T05:25:02.911Z,9.77
2018-06-21T05:27:31.197Z,9.87
2018-06-21T05:29:59.675Z,5.57
2018-06-21T05:32:28.023Z,5.17
2018-06-21T05:34:56.425Z,6.87
2018-06-21T05:37:25.220Z,6.47
2018-06-21T05:39:53.485Z,4.90
2018-06-21T05:42:21.820Z,5.23
2018-06-21T05:44:50.220Z,5.63
2018-06-21T05:47:18.670Z,4.63
2018-06-21T05:49:47.065Z,3.77
2018-06-21T05:52:15.454Z,5.07
2018-06-21T05:54:43.823Z,6.13
2018-06-21T05:57:12.306Z,5.83
2018-06-21T05:59:40.609Z,4.77
2018-06-21T06:02:08.952Z,5.27
2018-06-21T06:04:37.397Z,4.30
2018-06-21T06:07:05.557Z,4.30
2018-06-21T06:09:33.924Z,4.60
2018-06-21T06:12:02.349Z,5.73
2018-06-21T06:14:52.422Z,5.63
2018-06-21T06:17:20.771Z,3.93
2018-06-21T06:19:49.185Z,5.17
2018-06-21T06:22:17.700Z,4.90
2018-06-21T06:24:46.424Z,4.10
2018-06-21T06:27:14.761Z,4.43
2018-06-21T06:29:43.179Z,5.40
2018-06-21T06:32:11.633Z,5.33
2018-06-21T06:34:40.056Z,6.17
2018-06-21T06:37:08.475Z,5.23
2018-06-21T06:39:36.927Z,4.20
2018-06-21T06:42:05.545Z,8.37
2018-06-21T06:44:33.977Z,6.00
2018-06-21T06:47:02.427Z,6.97
2018-06-21T06:49:30.777Z,5.10
2018-06-21T06:51:59.288Z,6.73
2018-06-21T06:54:27.779Z,9.27
2018-06-21T06:56:56.266Z,7.37
2018-06-21T06:59:24.673Z,6.67
2018-06-21T07:01:53.105Z,8.03
2018-06-21T07:04:21.499Z,9.13
2018-06-21T07:06:49.771Z,11.87
2018-06-21T07:09:18.192Z,13.87
2018-06-21T07:11:46.493Z,11.23
2018-06-21T07:14:33.763Z,12.20
2018-06-21T07:17:02.385Z,11.50
2018-06-21T07:19:30.725Z,12.23
2018-06-21T07:21:59.109Z,10.63
2018-06-21T07:24:27.520Z,11.97
2018-06-21T07:26:56.830Z,11.23
2018-06-21T07:29:25.250Z,9.87
2018-06-21T07:31:53.808Z,15.00
2018-06-21T07:34:22.296Z,9.07
2018-06-21T07:36:50.765Z,7.70
2018-06-21T07:39:19.336Z,6.03
2018-06-21T07:41:47.857Z,7.03
2018-06-21T07:44:16.324Z,6.23
2018-06-21T07:46:44.674Z,4.93
2018-06-21T07:49:13.050Z,4.40
2018-06-21T07:51:41.412Z,6.60
2018-06-21T07:54:09.797Z,3.83
2018-06-21T07:56:38.133Z,6.43
2018-06-21T07:59:06.575Z,6.13
2018-06-21T08:01:34.912Z,4.43
2018-06-21T08:04:03.245Z,5.60
2018-06-21T08:06:31.619Z,5.77
2018-06-21T08:08:59.888Z,8.20
2018-06-21T08:11:28.419Z,9.63
2018-06-21T08:13:56.864Z,10.67
2018-06-21T08:16:25.236Z,7.60
2018-06-21T08:18:53.769Z,10.93
2018-06-21T08:21:22.239Z,8.20
2018-06-21T08:23:50.443Z,9.50
2018-06-21T08:26:18.899Z,7.77
2018-06-21T08:28:46.923Z,5.43
2018-06-21T08:31:15.344Z,4.43
2018-06-21T08:33:43.928Z,5.17
2018-06-21T08:36:12.396Z,7.10
2018-06-21T08:38:41.006Z,7.43
2018-06-21T08:41:09.414Z,5.13
2018-06-21T08:43:38.057Z,5.23
2018-06-21T08:46:06.730Z,7.63
2018-06-21T08:48:35.429Z,4.53
2018-06-21T08:51:03.932Z,6.43
2018-06-21T08:53:32.332Z,6.23
2018-06-21T08:56:00.789Z,5.43
2018-06-21T08:58:29.183Z,5.70
2018-06-21T09:00:57.594Z,4.83
2018-06-21T09:03:26.041Z,6.47
2018-06-21T09:05:54.481Z,4.30
2018-06-21T09:08:22.941Z,4.47
2018-06-21T09:10:51.481Z,4.93
2018-06-21T09:13:19.899Z,5.10
2018-06-21T09:15:48.311Z,6.93
2018-06-21T09:18:16.744Z,4.83
2018-06-21T09:20:45.235Z,6.40
2018-06-21T09:23:13.739Z,5.13
2018-06-21T09:25:42.120Z,7.70
2018-06-21T09:28:10.596Z,4.20
2018-06-21T09:30:39.222Z,4.20
2018-06-21T09:33:07.612Z,7.47
2018-06-21T09:35:36.754Z,5.47
2018-06-21T09:38:13.636Z,4.93
2018-06-21T09:40:47.304Z,5.07
2018-06-21T09:43:21.169Z,6.00
2018-06-21T09:45:55.068Z,5.97
2018-06-21T09:48:30.592Z,6.47
2018-06-21T09:50:59.832Z,4.60
2018-06-21T09:53:28.877Z,5.77
2018-06-21T09:55:58.217Z,6.67
2018-06-21T09:58:26.680Z,7.33
2018-06-21T10:01:00.487Z,3.93
2018-06-21T10:03:28.856Z,5.47
2018-06-21T10:05:57.515Z,5.00
2018-06-21T10:08:26.055Z,3.60
2018-06-21T10:10:54.577Z,4.53
2018-06-21T10:13:22.903Z,3.40
2018-06-21T10:15:51.553Z,4.70
2018-06-21T10:18:19.992Z,7.97
2018-06-21T10:20:48.447Z,4.10
2018-06-21T10:23:16.919Z,5.93
2018-06-21T10:25:45.319Z,4.60
2018-06-21T10:28:13.816Z,4.00
2018-06-21T10:34:06.110Z,3.60
2018-06-21T10:40:03.337Z,3.37
2018-06-21T10:46:16.449Z,8.50
2018-06-21T10:48:44.880Z,4.87
2018-06-21T10:51:13.358Z,5.07
2018-06-21T10:53:41.856Z,5.10
2018-06-21T10:56:10.349Z,5.60
2018-06-21T10:58:38.820Z,3.37
2018-06-21T11:01:07.201Z,3.00
2018-06-21T11:03:35.633Z,3.77
2018-06-21T11:06:04.205Z,3.73
2018-06-21T11:08:32.655Z,4.95
2018-06-21T11:11:01.116Z,6.53
2018-06-21T11:13:29.569Z,5.57
2018-06-21T11:15:58.343Z,5.50
2018-06-21T11:18:26.770Z,5.42
2018-06-21T11:20:55.073Z,6.30
2018-06-21T11:23:23.488Z,6.03
2018-06-21T11:25:51.985Z,6.05
2018-06-21T11:28:20.475Z,4.05
2018-06-21T11:30:48.871Z,4.08
2018-06-21T11:33:17.279Z,3.98
2018-06-21T11:35:45.732Z,3.37
2018-06-21T11:38:14.130Z,3.70
2018-06-21T11:40:42.546Z,4.33
2018-06-21T11:44:13.583Z,4.67
2018-06-21T11:46:42.024Z,4.70
2018-06-21T11:49:10.544Z,5.90
2018-06-21T11:51:39.385Z,3.90
2018-06-21T11:54:07.880Z,4.00
2018-06-21T11:56:36.416Z,3.50
2018-06-21T11:59:05.100Z,6.40
2018-06-21T12:01:33.497Z,4.05
2018-06-21T12:04:02.008Z,5.95
2018-06-21T12:06:30.543Z,5.60
2018-06-21T12:08:58.810Z,4.85
2018-06-21T12:11:27.388Z,5.97
2018-06-21T12:13:55.880Z,4.62
2018-06-21T12:16:24.635Z,4.40
2018-06-21T12:18:53.014Z,4.15
2018-06-21T12:21:21.396Z,3.95
2018-06-21T12:23:49.842Z,3.90
2018-06-21T12:26:18.302Z,4.60
2018-06-21T12:28:46.696Z,4.60
2018-06-21T12:31:14.818Z,5.85
2018-06-21T12:33:43.304Z,5.20
2018-06-21T12:36:11.610Z,7.55
2018-06-21T12:38:40.061Z,3.92
2018-06-21T12:41:08.430Z,4.53
2018-06-21T12:43:36.815Z,4.10
2018-06-21T12:46:05.140Z,3.27
2018-06-21T12:48:33.600Z,4.12
2018-06-21T12:51:02.128Z,4.10
2018-06-21T12:53:30.597Z,4.58
2018-06-21T12:55:58.975Z,5.50
2018-06-21T12:58:27.373Z,4.65
2018-06-21T13:00:55.908Z,10.90
2018-06-21T13:03:24.327Z,3.90
2018-06-21T13:05:52.556Z,3.95
2018-06-21T13:08:32.484Z,5.67
2018-06-21T13:14:30.822Z,3.90
2018-06-21T13:16:59.256Z,6.83
2018-06-21T13:23:18.982Z,3.95
2018-06-21T13:26:52.529Z,4.17
2018-06-21T13:29:20.861Z,4.42
2018-06-21T13:31:49.338Z,7.47
2018-06-21T13:34:17.820Z,4.10
2018-06-21T13:36:46.255Z,3.30
2018-06-21T13:39:14.632Z,4.00
2018-06-21T13:41:43.157Z,6.47
2018-06-21T13:44:11.597Z,4.30
2018-06-21T13:46:40.212Z,6.15
2018-06-21T13:49:08.818Z,5.45
2018-06-21T13:51:37.200Z,2.72
2018-06-21T13:54:05.676Z,6.62
2018-06-21T13:56:34.168Z,9.75
2018-06-21T13:59:02.608Z,7.05
2018-06-21T14:01:31.216Z,3.60
2018-06-21T14:03:59.835Z,4.83
2018-06-21T14:06:28.201Z,3.40
2018-06-21T14:08:56.629Z,7.00
2018-06-21T14:11:25.065Z,3.55
2018-06-21T14:13:53.623Z,3.60
2018-06-21T14:16:34.218Z,6.37
2018-06-21T14:19:02.533Z,6.87
2018-06-21T14:21:31.083Z,5.90
2018-06-21T14:23:59.543Z,2.50
2018-06-21T14:26:28.010Z,5.10
2018-06-21T14:28:56.588Z,3.25
2018-06-21T14:31:25.121Z,2.90
2018-06-21T14:33:53.745Z,4.25
2018-06-21T14:36:22.273Z,5.28
2018-06-21T14:38:50.661Z,2.80
2018-06-21T14:41:19.025Z,4.87
2018-06-21T14:43:47.366Z,3.72
2018-06-21T14:46:15.808Z,5.47
2018-06-21T14:48:44.262Z,5.12
2018-06-21T14:51:12.738Z,5.67
2018-06-21T14:53:41.173Z,4.60
2018-06-21T14:56:09.500Z,4.90
2018-06-21T14:58:37.932Z,4.07
2018-06-21T15:01:06.484Z,2.92
2018-06-21T15:03:35.054Z,3.50
2018-06-21T15:06:03.526Z,3.87
2018-06-21T15:08:31.949Z,3.87
2018-06-21T15:11:00.279Z,5.33
2018-06-21T15:13:28.865Z,4.13
2018-06-21T15:16:46.020Z,6.90
2018-06-21T15:19:14.360Z,4.37
2018-06-21T15:21:42.752Z,3.30
2018-06-21T15:24:11.299Z,7.00
2018-06-21T15:26:39.748Z,2.95
2018-06-21T15:29:08.309Z,3.97
2018-06-21T15:31:36.759Z,4.08
2018-06-21T15:34:05.103Z,4.92
2018-06-21T15:36:33.573Z,4.87
2018-06-21T15:39:11.776Z,3.90
2018-06-21T15:41:40.232Z,5.27
2018-06-21T15:44:08.656Z,2.90
2018-06-21T15:46:37.210Z,4.60
2018-06-21T15:49:05.662Z,3.95
2018-06-21T15:51:33.790Z,5.30
2018-06-21T15:54:02.167Z,6.70
2018-06-21T15:56:30.573Z,5.97
2018-06-21T15:58:59.095Z,5.60
2018-06-21T16:01:27.632Z,6.33
2018-06-21T16:03:56.096Z,7.63
2018-06-21T16:06:24.599Z,4.27
2018-06-21T16:08:53.120Z,3.77
2018-06-21T16:11:21.625Z,6.80
2018-06-21T16:13:50.220Z,7.70
2018-06-21T16:16:58.588Z,7.40
2018-06-21T16:19:26.968Z,5.10
2018-06-21T16:21:55.369Z,7.17
2018-06-21T16:24:23.752Z,4.20
2018-06-21T16:26:52.261Z,6.70
2018-06-21T16:33:08.526Z,5.27
2018-06-21T16:39:23.358Z,3.70
2018-06-21T16:45:47.897Z,3.40
2018-06-21T16:48:16.372Z,5.70
2018-06-21T16:50:44.632Z,5.23
2018-06-21T16:53:13.090Z,3.63
2018-06-21T16:55:41.463Z,4.78
2018-06-21T16:58:09.843Z,5.90
2018-06-21T17:00:38.645Z,5.57
2018-06-21T17:03:07.029Z,4.20
2018-06-21T17:05:35.484Z,4.67
2018-06-21T17:08:03.908Z,3.67
2018-06-21T17:10:32.337Z,6.87
2018-06-21T17:13:00.739Z,5.67
2018-06-21T17:18:50.522Z,6.63
2018-06-21T17:21:18.925Z,4.27
2018-06-21T17:23:47.453Z,4.70
2018-06-21T17:26:16.020Z,5.77
2018-06-21T17:28:44.546Z,5.60
2018-06-21T17:31:12.932Z,5.13
2018-06-21T17:33:41.330Z,9.43
2018-06-21T17:36:09.641Z,3.37
2018-06-21T17:38:37.891Z,5.70
2018-06-21T17:41:06.301Z,5.63
2018-06-21T17:43:34.655Z,4.20
2018-06-21T17:46:03.104Z,3.67
2018-06-21T17:48:31.561Z,5.23
2018-06-21T17:51:00.102Z,5.80
2018-06-21T17:53:28.507Z,3.20
2018-06-21T17:55:57.040Z,4.97
2018-06-21T17:58:25.605Z,4.33
2018-06-21T18:00:53.991Z,3.43
2018-06-21T18:03:22.571Z,3.57
2018-06-21T18:05:51.424Z,5.47
2018-06-21T18:08:19.829Z,4.70
2018-06-21T18:10:48.180Z,5.33
2018-06-21T18:13:16.728Z,4.43
2018-06-21T18:19:06.297Z,5.73
2018-06-21T18:21:35.178Z,3.87
2018-06-21T18:24:03.947Z,4.33
2018-06-21T18:26:32.808Z,5.90
2018-06-21T18:29:01.772Z,5.50
2018-06-21T18:31:30.497Z,4.57
2018-06-21T18:33:59.035Z,5.83
2018-06-21T18:36:28.142Z,6.10
2018-06-21T18:38:57.218Z,3.27
2018-06-21T18:41:26.222Z,7.47
2018-06-21T18:43:55.280Z,3.47
2018-06-21T18:46:24.470Z,4.50
2018-06-21T18:48:53.620Z,3.40
2018-06-21T18:51:22.797Z,3.70
2018-06-21T19:07:11.385Z,4.45
2018-06-21T19:09:45.881Z,3.20
2018-06-21T19:12:15.321Z,3.13
2018-06-21T19:15:13.962Z,5.20
2018-06-21T19:17:43.150Z,3.17
2018-06-21T19:20:12.481Z,4.20
2018-06-21T19:22:41.936Z,5.43
2018-06-21T19:26:16.224Z,6.50
2018-06-21T19:28:45.565Z,5.37
2018-06-21T19:35:06.473Z,4.87
2018-06-21T19:38:13.929Z,5.57
2018-06-21T19:40:43.845Z,4.43
2018-06-21T19:43:13.640Z,5.17
2018-06-21T19:45:43.006Z,5.33
2018-06-21T19:48:12.558Z,4.50
2018-06-21T19:50:42.097Z,5.23
2018-06-21T19:53:11.364Z,5.57
2018-06-21T19:55:41.852Z,5.27
2018-06-21T19:58:10.717Z,6.80
2018-06-21T20:00:41.229Z,7.07
2018-06-21T20:03:10.264Z,7.07
2018-06-21T20:05:41.068Z,6.27
2018-06-21T20:08:10.323Z,4.73
2018-06-21T20:10:41.387Z,7.83
2018-06-21T20:13:10.733Z,5.63
2018-06-21T20:19:11.498Z,8.27
2018-06-21T20:21:40.717Z,8.40
2018-06-21T20:24:10.141Z,5.23
2018-06-21T20:30:00.400Z,7.60
2018-06-21T20:32:29.766Z,4.87
2018-06-21T20:34:59.237Z,6.57
2018-06-21T20:37:28.576Z,6.77
2018-06-21T20:39:57.844Z,5.70
2018-06-21T20:42:26.922Z,6.97
2018-06-21T20:44:56.140Z,6.30
2018-06-21T20:47:25.264Z,6.47
2018-06-21T20:49:54.171Z,7.97
2018-06-21T20:52:30.022Z,5.03
2018-06-21T20:54:59.845Z,5.23
2018-06-21T20:57:29.448Z,6.60
2018-06-21T20:59:58.156Z,6.13
2018-06-21T21:02:26.869Z,6.90
2018-06-21T21:05:17.322Z,5.53
2018-06-21T21:07:47.147Z,5.00
2018-06-21T21:10:16.725Z,5.30
2018-06-21T21:12:45.204Z,5.00
2018-06-21T21:18:37.599Z,6.50
2018-06-21T21:21:06.388Z,7.90
2018-06-21T21:23:34.931Z,5.73
2018-06-21T21:26:03.544Z,6.00
2018-06-21T21:28:32.050Z,5.53
2018-06-21T21:31:00.581Z,4.43
2018-06-21T21:33:29.079Z,5.53
2018-06-21T21:35:57.561Z,9.73
2018-06-21T21:38:26.140Z,5.97
2018-06-21T21:40:54.689Z,6.33
2018-06-21T21:43:23.099Z,12.50
2018-06-21T21:45:51.301Z,7.27
2018-06-21T21:48:20.787Z,5.60
2018-06-21T21:50:49.157Z,10.80
2018-06-21T21:53:17.684Z,5.53
2018-06-21T21:55:46.170Z,8.77
2018-06-21T21:58:14.705Z,8.33
2018-06-21T22:00:46.073Z,7.27
2018-06-21T22:03:14.670Z,5.93
2018-06-21T22:05:43.607Z,5.77
2018-06-21T22:08:12.202Z,5.67
2018-06-21T22:10:42.663Z,6.50
2018-06-21T22:13:11.676Z,4.80
2018-06-21T22:15:42.479Z,5.57
2018-06-21T22:21:11.058Z,6.67
2018-06-21T22:23:46.138Z,6.57
2018-06-21T22:26:56.128Z,4.93
2018-06-21T22:29:24.779Z,6.27
2018-06-21T22:33:03.280Z,6.67
2018-06-21T22:35:31.654Z,5.17
2018-06-21T22:38:00.074Z,6.27
2018-06-21T22:40:28.554Z,6.47
2018-06-21T22:42:56.700Z,5.57
2018-06-21T22:45:25.168Z,4.77
2018-06-21T22:47:53.625Z,4.37
2018-06-21T22:50:21.986Z,4.60
2018-06-21T22:52:50.554Z,5.23
2018-06-21T22:55:19.018Z,5.17
2018-06-21T22:57:47.533Z,5.30
2018-06-21T23:00:16.486Z,5.13
2018-06-21T23:02:44.942Z,4.83
2018-06-21T23:05:13.576Z,5.13
2018-06-21T23:07:41.946Z,6.53
2018-06-21T23:10:10.487Z,4.87
2018-06-21T23:12:38.951Z,4.53
2018-06-21T23:15:07.511Z,4.30
2018-06-21T23:17:36.080Z,4.00
2018-06-21T23:20:04.623Z,6.30
2018-06-21T23:22:33.092Z,6.33
2018-06-21T23:25:01.640Z,5.77
2018-06-21T23:27:30.207Z,4.83
2018-06-21T23:29:58.821Z,4.30
2018-06-21T23:32:27.400Z,4.57
2018-06-21T23:34:55.886Z,5.53
2018-06-21T23:37:24.410Z,4.63
2018-06-21T23:39:52.927Z,4.97
2018-06-21T23:42:21.471Z,5.03
2018-06-21T23:44:49.937Z,4.90
2018-06-21T23:47:18.433Z,4.53
2018-06-21T23:49:46.996Z,4.30
2018-06-21T23:52:15.290Z,4.60
2018-06-21T23:54:43.697Z,5.10
2018-06-21T23:57:12.187Z,4.43
2018-06-21T23:59:40.588Z,4.57
